createdAt,value
2022-11-20T00:04:39.022Z,-0.20
2022-11-20T00:09:41.423Z,-0.20
2022-11-20T00:14:43.785Z,-0.20
2022-11-20T00:19:46.156Z,-0.20
2022-11-20T00:24:48.527Z,-0.30
2022-11-20T00:29:50.895Z,-0.30
2022-11-20T00:34:53.214Z,-0.30
2022-11-20T00:39:55.567Z,-0.30
2022-11-20T00:44:57.920Z,-0.40
2022-11-20T00:50:00.931Z,-0.40
2022-11-20T00:55:03.371Z,-0.50
2022-11-20T01:00:06.482Z,-0.50
2022-11-20T01:05:08.971Z,-0.50
2022-11-20T01:10:11.330Z,-0.60
2022-11-20T01:15:13.666Z,-0.60
2022-11-20T01:20:16.027Z,-0.60
2022-11-20T01:25:18.358Z,-0.60
2022-11-20T01:30:20.714Z,-0.60
2022-11-20T01:35:23.042Z,-0.60
2022-11-20T01:40:25.382Z,-0.60
2022-11-20T01:45:46.611Z,-0.60
2022-11-20T01:50:49.683Z,-0.70
2022-11-20T01:55:56.071Z,-0.40
2022-11-20T02:00:58.576Z,-0.70
2022-11-20T02:06:14.357Z,-0.60
2022-11-20T02:11:16.694Z,-0.60
2022-11-20T02:16:29.610Z,-0.70
2022-11-20T02:21:48.919Z,-0.60
2022-11-20T02:27:01.194Z,-0.60
2022-11-20T02:32:04.230Z,-0.60
2022-11-20T02:37:06.693Z,-0.60
2022-11-20T02:42:09.039Z,-0.70
2022-11-20T02:47:11.399Z,0.10
2022-11-20T02:52:13.731Z,-0.60
2022-11-20T02:57:16.129Z,-0.60
2022-11-20T03:02:21.601Z,-0.70
2022-11-20T03:07:24.063Z,-0.70
2022-11-20T03:12:26.419Z,-0.70
2022-11-20T03:17:30.416Z,-0.70
2022-11-20T03:22:32.855Z,-0.70
2022-11-20T03:27:36.060Z,-0.70
2022-11-20T03:32:38.433Z,-0.70
2022-11-20T03:37:40.868Z,-0.70
2022-11-20T03:42:46.072Z,-0.60
2022-11-20T03:47:48.476Z,-0.50
2022-11-20T03:52:50.885Z,-0.50
2022-11-20T03:57:53.208Z,-0.50
2022-11-20T04:02:59.691Z,-0.50
2022-11-20T04:08:02.562Z,-0.50
2022-11-20T04:13:07.519Z,-0.50
2022-11-20T04:18:09.803Z,-0.40
2022-11-20T04:23:12.214Z,-0.40
2022-11-20T04:28:14.518Z,-0.40
2022-11-20T04:33:16.892Z,-0.30
2022-11-20T04:38:19.196Z,-0.30
2022-11-20T04:43:21.534Z,-0.30
2022-11-20T04:48:24.326Z,-0.30
2022-11-20T04:53:27.573Z,-0.30
2022-11-20T04:58:30.136Z,-0.30
2022-11-20T05:03:32.674Z,-0.40
2022-11-20T05:08:35.397Z,-0.30
2022-11-20T05:13:37.737Z,-0.40
2022-11-20T05:18:41.409Z,-0.30
2022-11-20T05:23:44.776Z,-0.40
2022-11-20T05:28:48.016Z,-0.40
2022-11-20T05:33:50.622Z,-0.50
2022-11-20T05:38:56.623Z,-0.40
2022-11-20T05:44:00.654Z,-0.50
2022-11-20T05:49:03.257Z,-0.50
2022-11-20T05:54:05.658Z,-0.50
2022-11-20T05:59:08.086Z,-0.50
2022-11-20T06:04:10.390Z,-0.60
2022-11-20T06:09:12.807Z,-0.60
2022-11-20T06:14:15.141Z,-0.70
2022-11-20T06:19:17.652Z,-0.70
2022-11-20T06:24:20.086Z,-0.70
2022-11-20T06:29:22.635Z,-0.60
2022-11-20T06:34:25.143Z,-0.70
2022-11-20T06:39:27.478Z,-0.70
2022-11-20T06:44:29.819Z,-0.70
2022-11-20T06:49:32.190Z,-0.70
2022-11-20T06:54:34.519Z,-0.70
2022-11-20T06:59:36.847Z,-0.70
2022-11-20T07:04:40.152Z,-0.70
2022-11-20T07:09:42.463Z,-0.70
2022-11-20T07:14:44.806Z,-0.70
2022-11-20T07:19:47.203Z,-0.70
2022-11-20T07:24:49.867Z,-0.70
2022-11-20T07:29:52.180Z,-0.70
2022-11-20T07:34:54.502Z,-0.60
2022-11-20T07:39:56.830Z,-0.40
2022-11-20T07:44:59.575Z,-0.50
2022-11-20T07:50:01.922Z,-0.40
2022-11-20T07:55:04.516Z,-0.30
2022-11-20T08:00:10.203Z,-0.20
2022-11-20T08:05:15.343Z,-0.10
2022-11-20T08:10:18.280Z,0.00
2022-11-20T08:15:21.389Z,0.10
2022-11-20T08:20:23.699Z,0.20
2022-11-20T08:25:26.207Z,0.40
2022-11-20T08:30:29.460Z,0.40
2022-11-20T08:35:36.922Z,0.60
2022-11-20T08:40:46.709Z,0.70
2022-11-20T08:45:48.994Z,0.70
2022-11-20T08:50:51.295Z,0.80
2022-11-20T08:55:53.592Z,0.70
2022-11-20T09:00:55.928Z,0.80
2022-11-20T09:06:00.442Z,0.80
2022-11-20T09:11:04.494Z,0.90
2022-11-20T09:16:09.179Z,1.00
2022-11-20T09:21:15.389Z,1.10
2022-11-20T09:26:17.750Z,1.10
2022-11-20T09:31:25.286Z,1.40
2022-11-20T09:36:27.638Z,1.70
2022-11-20T09:41:48.898Z,1.60
2022-11-20T09:47:03.952Z,1.50
2022-11-20T09:52:23.483Z,1.70
2022-11-20T09:57:38.923Z,1.80
2022-11-20T10:02:47.735Z,1.80
2022-11-20T10:07:56.979Z,1.80
2022-11-20T10:13:26.677Z,2.00
2022-11-20T10:18:54.738Z,2.00
2022-11-20T10:24:16.437Z,2.20
2022-11-20T10:29:23.197Z,2.30
2022-11-20T10:34:32.568Z,2.00
2022-11-20T10:40:03.080Z,1.70
2022-11-20T10:45:25.704Z,1.50
2022-11-20T10:50:29.312Z,1.60
2022-11-20T10:55:44.503Z,1.70
2022-11-20T11:00:46.901Z,1.80
2022-11-20T11:05:49.241Z,1.90
2022-11-20T11:10:55.972Z,1.90
2022-11-20T11:15:59.297Z,2.00
2022-11-20T11:21:06.407Z,2.00
2022-11-20T11:26:24.703Z,1.90
2022-11-20T11:31:32.796Z,2.10
2022-11-20T11:36:36.843Z,2.00
2022-11-20T11:41:39.335Z,1.70
2022-11-20T11:46:54.631Z,1.80
2022-11-20T11:52:03.509Z,1.90
2022-11-20T11:57:15.361Z,2.00
2022-11-20T12:02:35.729Z,1.90
2022-11-20T12:07:47.059Z,1.90
2022-11-20T12:12:59.664Z,1.80
2022-11-20T12:18:03.897Z,1.90
2022-11-20T12:23:21.022Z,1.80
2022-11-20T12:28:53.407Z,2.20
2022-11-20T12:34:22.003Z,1.80
2022-11-20T12:39:36.694Z,1.80
2022-11-20T12:45:03.674Z,1.80
2022-11-20T12:50:29.288Z,1.90
2022-11-20T12:55:43.585Z,1.90
2022-11-20T13:01:39.644Z,1.90
2022-11-20T13:06:42.700Z,2.00
2022-11-20T13:11:58.201Z,2.10
2022-11-20T13:17:15.868Z,2.10
2022-11-20T13:22:26.665Z,2.00
2022-11-20T13:27:31.994Z,2.00
2022-11-20T13:32:34.639Z,2.10
2022-11-20T13:37:38.888Z,2.10
2022-11-20T13:42:46.360Z,2.20
2022-11-20T13:47:50.974Z,2.10
2022-11-20T13:52:53.250Z,2.00
2022-11-20T13:58:14.402Z,2.10
2022-11-20T14:03:37.855Z,2.00
2022-11-20T14:08:48.357Z,2.00
2022-11-20T14:14:04.617Z,2.00
2022-11-20T14:19:22.007Z,1.90
2022-11-20T14:24:26.052Z,1.80
2022-11-20T14:29:34.263Z,1.70
2022-11-20T14:34:42.763Z,1.70
2022-11-20T14:39:57.377Z,1.60
2022-11-20T14:45:00.894Z,1.50
2022-11-20T14:50:09.700Z,1.30
2022-11-20T14:55:25.585Z,1.20
2022-11-20T15:00:28.775Z,1.20
2022-11-20T15:05:49.030Z,1.10
2022-11-20T15:10:53.091Z,1.00
2022-11-20T15:15:57.552Z,0.90
2022-11-20T15:21:04.207Z,1.20
2022-11-20T15:26:07.852Z,0.80
2022-11-20T15:31:13.168Z,0.80
2022-11-20T15:36:15.963Z,0.70
2022-11-20T15:41:19.101Z,0.60
2022-11-20T15:46:31.452Z,0.50
2022-11-20T15:51:39.027Z,0.50
2022-11-20T15:56:41.624Z,0.50
2022-11-20T16:01:44.369Z,0.50
2022-11-20T16:06:46.901Z,0.50
2022-11-20T16:11:49.211Z,0.40
2022-11-20T16:16:55.037Z,0.40
2022-11-20T16:22:03.240Z,0.40
2022-11-20T16:27:05.765Z,0.50
2022-11-20T16:32:08.113Z,0.50
2022-11-20T16:37:10.460Z,0.50
2022-11-20T16:42:12.753Z,0.50
2022-11-20T16:47:15.075Z,0.60
2022-11-20T16:52:17.360Z,0.60
2022-11-20T16:57:19.881Z,0.60
2022-11-20T17:02:22.433Z,0.40
2022-11-20T17:07:24.777Z,0.40
2022-11-20T17:12:27.128Z,0.30
2022-11-20T17:17:29.579Z,0.30
2022-11-20T17:22:32.605Z,0.30
2022-11-20T17:27:35.168Z,0.40
2022-11-20T17:32:37.491Z,0.40
2022-11-20T17:37:39.855Z,0.30
2022-11-20T17:42:42.225Z,0.20
2022-11-20T17:47:46.543Z,0.20
2022-11-20T17:52:48.860Z,0.20
2022-11-20T17:57:56.557Z,0.20
2022-11-20T18:02:59.164Z,0.20
2022-11-20T18:08:04.363Z,0.10
2022-11-20T18:13:06.646Z,0.10
2022-11-20T18:18:11.614Z,0.10
2022-11-20T18:23:13.903Z,0.10
2022-11-20T18:28:16.290Z,0.10
2022-11-20T18:33:18.943Z,0.00
2022-11-20T18:38:21.401Z,0.00
2022-11-20T18:43:42.303Z,-0.20
2022-11-20T18:48:44.775Z,-0.30
2022-11-20T18:53:47.616Z,-0.40
2022-11-20T18:58:50.186Z,-0.40
2022-11-20T19:03:52.581Z,-0.40
2022-11-20T19:08:54.926Z,-0.30
2022-11-20T19:13:57.414Z,-0.30
2022-11-20T19:19:03.396Z,-0.30
2022-11-20T19:24:06.169Z,-0.30
2022-11-20T19:29:12.577Z,-0.20
2022-11-20T19:34:15.471Z,-0.30
2022-11-20T19:39:17.972Z,-0.30
2022-11-20T19:44:20.364Z,-0.30
2022-11-20T19:49:23.072Z,-0.50
2022-11-20T19:54:25.776Z,-0.60
2022-11-20T19:59:28.218Z,-0.60
2022-11-20T20:04:30.602Z,-0.60
2022-11-20T20:09:34.308Z,-0.60
2022-11-20T20:14:36.614Z,-0.60
2022-11-20T20:19:38.903Z,-0.70
2022-11-20T20:24:41.204Z,-0.60
2022-11-20T20:29:43.507Z,-0.70
2022-11-20T20:34:45.808Z,-0.80
2022-11-20T20:39:48.133Z,-1.00
2022-11-20T20:45:08.548Z,-1.10
2022-11-20T20:50:12.178Z,-1.20
2022-11-20T20:55:15.176Z,-1.30
2022-11-20T21:00:17.574Z,-1.40
2022-11-20T21:05:19.919Z,-1.50
2022-11-20T21:10:23.872Z,-1.60
2022-11-20T21:15:26.470Z,-1.60
2022-11-20T21:20:47.362Z,-1.70
2022-11-20T21:25:49.689Z,-1.80
2022-11-20T21:30:52.012Z,-1.40
2022-11-20T21:35:54.293Z,-1.20
2022-11-20T21:40:59.973Z,-2.00
2022-11-20T21:46:11.384Z,-2.00
2022-11-20T21:51:16.013Z,-2.00
2022-11-20T21:56:20.686Z,-2.00
2022-11-20T22:01:29.112Z,-2.10
2022-11-20T22:06:33.701Z,-2.20
2022-11-20T22:11:36.062Z,-2.30
2022-11-20T22:16:38.813Z,-2.30
2022-11-20T22:21:41.957Z,-2.30
2022-11-20T22:26:44.336Z,-2.40
2022-11-20T22:31:47.825Z,-2.40
2022-11-20T22:36:50.214Z,-2.50
2022-11-20T22:41:52.525Z,-2.50
2022-11-20T22:46:54.874Z,-2.60
2022-11-20T22:51:57.177Z,-2.60
2022-11-20T22:56:59.494Z,-2.60
2022-11-20T23:02:01.792Z,-2.60
2022-11-20T23:07:04.317Z,-2.60
2022-11-20T23:12:06.980Z,-2.70
2022-11-20T23:17:34.451Z,-2.80
2022-11-20T23:22:36.872Z,-2.80
2022-11-20T23:27:39.146Z,-2.90
